sensor_id;sensor_type;location;lat;lon;timestamp;pressure;altitude;pressure_sealevel;temperature;humidity
49585;BME280;35491;49.142;9.210;2022-11-20T00:00:14;99442.31;;;3.87;82.87
49585;BME280;35491;49.142;9.210;2022-11-20T00:01:18;99446.63;;;3.88;83.29
49585;BME280;35491;49.142;9.210;2022-11-20T00:02:22;99458.69;;;3.93;83.17
49585;BME280;35491;49.142;9.210;2022-11-20T00:03:26;99449.31;;;4.00;83.15
49585;BME280;35491;49.142;9.210;2022-11-20T00:04:30;99446.44;;;4.03;83.02
49585;BME280;35491;49.142;9.210;2022-11-20T00:05:34;99443.69;;;4.04;83.11
49585;BME280;35491;49.142;9.210;2022-11-20T00:06:36;99446.44;;;4.03;83.01
49585;BME280;35491;49.142;9.210;2022-11-20T00:07:40;99438.38;;;4.04;82.99
49585;BME280;35491;49.142;9.210;2022-11-20T00:08:42;99443.06;;;4.01;82.79
49585;BME280;35491;49.142;9.210;2022-11-20T00:09:46;99449.31;;;4.00;83.06
49585;BME280;35491;49.142;9.210;2022-11-20T00:10:48;99455.13;;;4.05;82.96
49585;BME280;35491;49.142;9.210;2022-11-20T00:11:52;99455.72;;;4.09;82.99
49585;BME280;35491;49.142;9.210;2022-11-20T00:12:57;99455.72;;;4.09;82.81
49585;BME280;35491;49.142;9.210;2022-11-20T00:14:00;99446.81;;;3.98;82.54
49585;BME280;35491;49.142;9.210;2022-11-20T00:15:05;99451.47;;;3.95;82.73
49585;BME280;35491;49.142;9.210;2022-11-20T00:16:12;99450.28;;;3.99;83.05
49585;BME280;35491;49.142;9.210;2022-11-20T00:17:17;99450.28;;;3.99;82.94
49585;BME280;35491;49.142;9.210;2022-11-20T00:18:18;99446.28;;;3.93;82.99
49585;BME280;35491;49.142;9.210;2022-11-20T00:19:25;99445.72;;;4.01;83.13
49585;BME280;35491;49.142;9.210;2022-11-20T00:20:27;99448.88;;;4.06;82.96
49585;BME280;35491;49.142;9.210;2022-11-20T00:21:32;99449.34;;;4.11;82.98
49585;BME280;35491;49.142;9.210;2022-11-20T00:22:33;99442.59;;;4.07;82.83
49585;BME280;35491;49.142;9.210;2022-11-20T00:23:42;99438.38;;;4.04;82.49
49585;BME280;35491;49.142;9.210;2022-11-20T00:24:44;99453.66;;;4.01;82.85
49585;BME280;35491;49.142;9.210;2022-11-20T00:25:48;99442.47;;;3.97;83.44
49585;BME280;35491;49.142;9.210;2022-11-20T00:26:49;99448.13;;;4.04;83.29
49585;BME280;35491;49.142;9.210;2022-11-20T00:27:54;99445.97;;;4.09;83.08
49585;BME280;35491;49.142;9.210;2022-11-20T00:28:57;99448.25;;;4.14;82.91
49585;BME280;35491;49.142;9.210;2022-11-20T00:30:02;99446.94;;;4.19;82.76
49585;BME280;35491;49.142;9.210;2022-11-20T00:31:06;99450.31;;;4.21;82.71
49585;BME280;35491;49.142;9.210;2022-11-20T00:32:10;99450.56;;;4.18;82.60
49585;BME280;35491;49.142;9.210;2022-11-20T00:33:11;99446.47;;;4.14;82.63
49585;BME280;35491;49.142;9.210;2022-11-20T00:34:15;99448.84;;;4.17;82.65
49585;BME280;35491;49.142;9.210;2022-11-20T00:35:19;99437.06;;;4.10;82.63
49585;BME280;35491;49.142;9.210;2022-11-20T00:36:25;99439.72;;;4.10;82.97
49585;BME280;35491;49.142;9.210;2022-11-20T00:37:30;99440.22;;;4.15;82.55
49585;BME280;35491;49.142;9.210;2022-11-20T00:38:31;99440.81;;;4.19;82.67
49585;BME280;35491;49.142;9.210;2022-11-20T00:39:36;99444.53;;;4.16;82.68
49585;BME280;35491;49.142;9.210;2022-11-20T00:40:40;99446.34;;;4.16;82.72
49585;BME280;35491;49.142;9.210;2022-11-20T00:41:41;99446.59;;;4.24;82.69
49585;BME280;35491;49.142;9.210;2022-11-20T00:42:45;99447.19;;;4.28;82.38
49585;BME280;35491;49.142;9.210;2022-11-20T00:43:47;99445.50;;;4.27;82.47
49585;BME280;35491;49.142;9.210;2022-11-20T00:44:51;99445.41;;;4.28;82.80
49585;BME280;35491;49.142;9.210;2022-11-20T00:45:56;99437.22;;;4.20;82.19
49585;BME280;35491;49.142;9.210;2022-11-20T00:47:00;99431.06;;;4.19;82.62
49585;BME280;35491;49.142;9.210;2022-11-20T00:48:02;99438.88;;;4.21;82.47
49585;BME280;35491;49.142;9.210;2022-11-20T00:49:06;99438.41;;;4.27;82.63
49585;BME280;35491;49.142;9.210;2022-11-20T00:50:08;99443.44;;;4.30;82.35
49585;BME280;35491;49.142;9.210;2022-11-20T00:51:17;99447.81;;;4.20;82.80
49585;BME280;35491;49.142;9.210;2022-11-20T00:52:19;99446.47;;;4.26;82.64
49585;BME280;35491;49.142;9.210;2022-11-20T00:53:23;99448.53;;;4.33;82.51
49585;BME280;35491;49.142;9.210;2022-11-20T00:54:24;99441.19;;;4.37;82.44
49585;BME280;35491;49.142;9.210;2022-11-20T00:55:28;99434.69;;;4.41;82.25
49585;BME280;35491;49.142;9.210;2022-11-20T00:56:30;99446.13;;;4.42;82.07
49585;BME280;35491;49.142;9.210;2022-11-20T00:57:34;99449.34;;;4.45;81.94
49585;BME280;35491;49.142;9.210;2022-11-20T00:58:37;99442.50;;;4.43;82.22
49585;BME280;35491;49.142;9.210;2022-11-20T00:59:42;99446.13;;;4.42;82.03
49585;BME280;35491;49.142;9.210;2022-11-20T01:00:43;99451.53;;;4.40;82.17
49585;BME280;35491;49.142;9.210;2022-11-20T01:01:47;99440.81;;;4.42;81.85
49585;BME280;35491;49.142;9.210;2022-11-20T01:02:49;99446.25;;;4.40;82.13
49585;BME280;35491;49.142;9.210;2022-11-20T01:03:55;99447.19;;;4.39;81.92
49585;BME280;35491;49.142;9.210;2022-11-20T01:04:56;99454.19;;;4.40;82.26
49585;BME280;35491;49.142;9.210;2022-11-20T01:06:01;99452.13;;;4.44;82.05
49585;BME280;35491;49.142;9.210;2022-11-20T01:07:06;99453.69;;;4.46;82.04
49585;BME280;35491;49.142;9.210;2022-11-20T01:08:10;99452.88;;;4.46;82.01
49585;BME280;35491;49.142;9.210;2022-11-20T01:09:13;99454.53;;;4.35;81.94
49585;BME280;35491;49.142;9.210;2022-11-20T01:10:17;99453.47;;;4.38;82.05
49585;BME280;35491;49.142;9.210;2022-11-20T01:11:22;99449.38;;;4.34;81.87
49585;BME280;35491;49.142;9.210;2022-11-20T01:12:26;99449.59;;;4.31;82.30
49585;BME280;35491;49.142;9.210;2022-11-20T01:13:29;99452.25;;;4.31;82.11
49585;BME280;35491;49.142;9.210;2022-11-20T01:14:42;99453.56;;;4.25;82.46
49585;BME280;35491;49.142;9.210;2022-11-20T01:15:44;99444.31;;;4.31;82.17
49585;BME280;35491;49.142;9.210;2022-11-20T01:16:49;99439.63;;;4.34;82.11
49585;BME280;35491;49.142;9.210;2022-11-20T01:17:55;99448.38;;;4.35;81.96
49585;BME280;35491;49.142;9.210;2022-11-20T01:18:58;99444.56;;;4.39;82.17
49585;BME280;35491;49.142;9.210;2022-11-20T01:20:03;99450.81;;;4.38;81.83
49585;BME280;35491;49.142;9.210;2022-11-20T01:21:07;99446.25;;;4.40;82.11
49585;BME280;35491;49.142;9.210;2022-11-20T01:22:13;99449.59;;;4.31;82.18
49585;BME280;35491;49.142;9.210;2022-11-20T01:23:16;99453.94;;;4.32;82.29
49585;BME280;35491;49.142;9.210;2022-11-20T01:24:21;99450.34;;;4.33;82.25
49585;BME280;35491;49.142;9.210;2022-11-20T01:25:25;99443.81;;;4.26;82.31
49585;BME280;35491;49.142;9.210;2022-11-20T01:26:29;99450.31;;;4.21;82.65
49585;BME280;35491;49.142;9.210;2022-11-20T01:27:33;99456.56;;;4.20;82.41
49585;BME280;35491;49.142;9.210;2022-11-20T01:28:35;99456.56;;;4.09;82.91
49585;BME280;35491;49.142;9.210;2022-11-20T01:29:39;99453.88;;;3.98;83.71
49585;BME280;35491;49.142;9.210;2022-11-20T01:30:42;99453.44;;;4.04;83.48
49585;BME280;35491;49.142;9.210;2022-11-20T01:31:46;99441.41;;;4.11;83.10
49585;BME280;35491;49.142;9.210;2022-11-20T01:32:48;99445.03;;;4.21;82.72
49585;BME280;35491;49.142;9.210;2022-11-20T01:33:54;99452.47;;;4.28;82.31
49585;BME280;35491;49.142;9.210;2022-11-20T01:34:56;99450.34;;;4.33;82.19
49585;BME280;35491;49.142;9.210;2022-11-20T01:36:04;99449.38;;;4.34;82.39
49585;BME280;35491;49.142;9.210;2022-11-20T01:37:06;99451.53;;;4.29;82.67
49585;BME280;35491;49.142;9.210;2022-11-20T01:38:14;99450.56;;;4.18;83.37
49585;BME280;35491;49.142;9.210;2022-11-20T01:39:18;99451.88;;;4.24;83.25
49585;BME280;35491;49.142;9.210;2022-11-20T01:40:22;99445.88;;;4.33;83.23
49585;BME280;35491;49.142;9.210;2022-11-20T01:41:29;99435.41;;;4.32;82.78
49585;BME280;35491;49.142;9.210;2022-11-20T01:42:51;99439.97;;;4.18;83.35
49585;BME280;35491;49.142;9.210;2022-11-20T01:44:11;99433.69;;;4.08;83.93
49585;BME280;35491;49.142;9.210;2022-11-20T01:46:55;99436.09;;;4.00;84.24
49585;BME280;35491;49.142;9.210;2022-11-20T01:48:00;99431.78;;;4.10;84.52
49585;BME280;35491;49.142;9.210;2022-11-20T01:49:04;99428.66;;;4.28;83.48
49585;BME280;35491;49.142;9.210;2022-11-20T01:50:14;99421.47;;;4.30;83.51
49585;BME280;35491;49.142;9.210;2022-11-20T01:51:22;99425.44;;;4.35;83.31
49585;BME280;35491;49.142;9.210;2022-11-20T01:52:33;99424.22;;;4.40;82.90
49585;BME280;35491;49.142;9.210;2022-11-20T01:53:38;99423.84;;;4.44;82.89
49585;BME280;35491;49.142;9.210;2022-11-20T01:54:47;99426.03;;;4.39;82.77
49585;BME280;35491;49.142;9.210;2022-11-20T01:55:53;99426.03;;;4.50;82.64
49585;BME280;35491;49.142;9.210;2022-11-20T01:56:59;99422.06;;;4.56;82.23
49585;BME280;35491;49.142;9.210;2022-11-20T01:58:07;99412.31;;;4.57;82.30
49585;BME280;35491;49.142;9.210;2022-11-20T01:59:14;99426.13;;;4.60;82.19
49585;BME280;35491;49.142;9.210;2022-11-20T02:00:18;99424.94;;;4.64;82.43
49585;BME280;35491;49.142;9.210;2022-11-20T02:01:23;99418.31;;;4.70;82.40
49585;BME280;35491;49.142;9.210;2022-11-20T02:02:25;99423.13;;;4.76;82.01
49585;BME280;35491;49.142;9.210;2022-11-20T02:03:30;99417.81;;;4.76;82.16
49585;BME280;35491;49.142;9.210;2022-11-20T02:04:33;99424.22;;;4.74;82.30
49585;BME280;35491;49.142;9.210;2022-11-20T02:05:41;99419.50;;;4.77;82.38
49585;BME280;35491;49.142;9.210;2022-11-20T02:06:48;99421.19;;;4.78;82.58
49585;BME280;35491;49.142;9.210;2022-11-20T02:07:54;99422.28;;;4.76;82.56
49585;BME280;35491;49.142;9.210;2022-11-20T02:09:01;99422.44;;;4.63;82.87
49585;BME280;35491;49.142;9.210;2022-11-20T02:10:05;99420.25;;;4.57;82.93
49585;BME280;35491;49.142;9.210;2022-11-20T02:11:09;99424.94;;;4.53;83.39
49585;BME280;35491;49.142;9.210;2022-11-20T02:12:13;99427.81;;;4.50;83.41
49585;BME280;35491;49.142;9.210;2022-11-20T02:13:30;99429.63;;;4.61;83.36
49585;BME280;35491;49.142;9.210;2022-11-20T02:14:44;99423.84;;;4.67;82.98
49585;BME280;35491;49.142;9.210;2022-11-20T02:15:49;99420.00;;;4.71;83.03
49585;BME280;35491;49.142;9.210;2022-11-20T02:16:51;99422.66;;;4.71;82.91
49585;BME280;35491;49.142;9.210;2022-11-20T02:17:56;99427.31;;;4.79;82.75
49585;BME280;35491;49.142;9.210;2022-11-20T02:19:00;99420.09;;;4.81;82.38
49585;BME280;35491;49.142;9.210;2022-11-20T02:20:06;99420.22;;;4.79;82.48
49585;BME280;35491;49.142;9.210;2022-11-20T02:21:15;99419.28;;;4.80;82.25
49585;BME280;35491;49.142;9.210;2022-11-20T02:22:26;99425.25;;;4.82;82.40
49585;BME280;35491;49.142;9.210;2022-11-20T02:23:33;99424.56;;;4.80;82.36
49585;BME280;35491;49.142;9.210;2022-11-20T02:24:42;99418.91;;;4.74;82.57
49585;BME280;35491;49.142;9.210;2022-11-20T02:25:49;99425.75;;;4.76;82.41
49585;BME280;35491;49.142;9.210;2022-11-20T02:26:59;99427.44;;;4.77;82.56
49585;BME280;35491;49.142;9.210;2022-11-20T02:28:05;99430.44;;;4.84;82.50
49585;BME280;35491;49.142;9.210;2022-11-20T02:29:17;99422.13;;;4.89;82.54
49585;BME280;35491;49.142;9.210;2022-11-20T02:30:23;99415.97;;;4.88;82.47
49585;BME280;35491;49.142;9.210;2022-11-20T02:31:25;99414.78;;;4.92;82.26
49585;BME280;35491;49.142;9.210;2022-11-20T02:32:31;99423.56;;;4.93;82.33
49585;BME280;35491;49.142;9.210;2022-11-20T02:33:33;99415.38;;;4.96;82.32
49585;BME280;35491;49.142;9.210;2022-11-20T02:34:37;99419.56;;;4.98;82.23
49585;BME280;35491;49.142;9.210;2022-11-20T02:35:43;99417.78;;;4.99;82.34
49585;BME280;35491;49.142;9.210;2022-11-20T02:36:52;99422.22;;;4.98;82.29
49585;BME280;35491;49.142;9.210;2022-11-20T02:37:58;99419.22;;;4.92;82.56
49585;BME280;35491;49.142;9.210;2022-11-20T02:39:09;99422.97;;;4.89;82.61
49585;BME280;35491;49.142;9.210;2022-11-20T02:40:16;99416.56;;;4.92;82.68
49585;BME280;35491;49.142;9.210;2022-11-20T02:41:19;99411.53;;;5.00;82.67
49585;BME280;35491;49.142;9.210;2022-11-20T02:42:23;99413.06;;;5.03;82.40
49585;BME280;35491;49.142;9.210;2022-11-20T02:43:25;99405.97;;;4.92;82.79
49585;BME280;35491;49.142;9.210;2022-11-20T02:44:29;99416.13;;;4.75;83.01
49585;BME280;35491;49.142;9.210;2022-11-20T02:45:30;99408.44;;;4.72;83.71
49585;BME280;35491;49.142;9.210;2022-11-20T02:46:35;99402.78;;;4.77;83.62
49585;BME280;35491;49.142;9.210;2022-11-20T02:47:43;99408.91;;;4.77;83.57
49585;BME280;35491;49.142;9.210;2022-11-20T02:48:47;99409.50;;;4.81;83.55
49585;BME280;35491;49.142;9.210;2022-11-20T02:49:52;99407.06;;;4.89;83.37
49585;BME280;35491;49.142;9.210;2022-11-20T02:50:56;99411.28;;;4.92;83.08
49585;BME280;35491;49.142;9.210;2022-11-20T02:51:57;99404.41;;;5.00;83.03
49585;BME280;35491;49.142;9.210;2022-11-20T02:53:01;99402.13;;;4.96;83.22
49585;BME280;35491;49.142;9.210;2022-11-20T02:54:09;99398.38;;;4.98;82.95
49585;BME280;35491;49.142;9.210;2022-11-20T02:55:15;99402.47;;;5.03;82.90
49585;BME280;35491;49.142;9.210;2022-11-20T02:56:18;99395.56;;;5.11;82.70
49585;BME280;35491;49.142;9.210;2022-11-20T02:57:22;99396.03;;;5.17;82.82
49585;BME280;35491;49.142;9.210;2022-11-20T02:58:25;99395.78;;;5.20;82.25
49585;BME280;35491;49.142;9.210;2022-11-20T02:59:29;99389.50;;;5.21;82.66
49585;BME280;35491;49.142;9.210;2022-11-20T03:00:32;99393.84;;;5.22;82.57
49585;BME280;35491;49.142;9.210;2022-11-20T03:01:36;99395.09;;;5.18;82.50
49585;BME280;35491;49.142;9.210;2022-11-20T03:02:42;99396.63;;;5.20;82.89
49585;BME280;35491;49.142;9.210;2022-11-20T03:03:46;99398.91;;;5.25;82.64
49585;BME280;35491;49.142;9.210;2022-11-20T03:04:49;99387.09;;;5.29;82.57
49585;BME280;35491;49.142;9.210;2022-11-20T03:05:53;99396.13;;;5.26;82.65
49585;BME280;35491;49.142;9.210;2022-11-20T03:07:02;99392.50;;;5.27;82.96
49585;BME280;35491;49.142;9.210;2022-11-20T03:08:06;99387.09;;;5.29;82.68
49585;BME280;35491;49.142;9.210;2022-11-20T03:09:07;99395.75;;;5.31;82.60
49585;BME280;35491;49.142;9.210;2022-11-20T03:10:12;99393.81;;;5.33;82.35
49585;BME280;35491;49.142;9.210;2022-11-20T03:11:20;99391.41;;;5.30;82.62
49585;BME280;35491;49.142;9.210;2022-11-20T03:12:24;99390.44;;;5.31;82.54
49585;BME280;35491;49.142;9.210;2022-11-20T03:13:32;99386.81;;;5.32;82.55
49585;BME280;35491;49.142;9.210;2022-11-20T03:14:36;99392.50;;;5.27;82.58
49585;BME280;35491;49.142;9.210;2022-11-20T03:15:45;99390.09;;;5.24;82.93
49585;BME280;35491;49.142;9.210;2022-11-20T03:16:49;99384.78;;;5.24;82.75
49585;BME280;35491;49.142;9.210;2022-11-20T03:17:53;99381.06;;;5.27;83.05
49585;BME280;35491;49.142;9.210;2022-11-20T03:18:57;99380.09;;;5.28;82.79
49585;BME280;35491;49.142;9.210;2022-11-20T03:20:14;99380.34;;;5.25;83.37
49585;BME280;35491;49.142;9.210;2022-11-20T03:21:18;99384.56;;;5.27;83.10
49585;BME280;35491;49.142;9.210;2022-11-20T03:22:24;99384.56;;;5.27;82.88
49585;BME280;35491;49.142;9.210;2022-11-20T03:23:29;99381.06;;;5.27;83.11
49585;BME280;35491;49.142;9.210;2022-11-20T03:24:30;99377.31;;;5.29;82.86
49585;BME280;35491;49.142;9.210;2022-11-20T03:25:34;99378.03;;;5.31;83.00
49585;BME280;35491;49.142;9.210;2022-11-20T03:26:44;99380.31;;;5.36;82.95
49585;BME280;35491;49.142;9.210;2022-11-20T03:27:49;99392.47;;;5.39;82.78
49585;BME280;35491;49.142;9.210;2022-11-20T03:28:58;99373.06;;;5.38;82.65
49585;BME280;35491;49.142;9.210;2022-11-20T03:30:03;99372.69;;;5.43;82.66
49585;BME280;35491;49.142;9.210;2022-11-20T03:31:07;99371.84;;;5.42;82.66
49585;BME280;35491;49.142;9.210;2022-11-20T03:32:12;99374.03;;;5.37;82.88
49585;BME280;35491;49.142;9.210;2022-11-20T03:33:28;99376.41;;;5.40;83.07
49585;BME280;35491;49.142;9.210;2022-11-20T03:34:32;99376.31;;;5.42;82.97
49585;BME280;35491;49.142;9.210;2022-11-20T03:35:38;99375.22;;;5.44;82.95
49585;BME280;35491;49.142;9.210;2022-11-20T03:36:42;99381.09;;;5.48;82.78
49585;BME280;35491;49.142;9.210;2022-11-20T03:37:45;99372.16;;;5.49;82.97
49585;BME280;35491;49.142;9.210;2022-11-20T03:38:49;99365.75;;;5.52;82.58
49585;BME280;35491;49.142;9.210;2022-11-20T03:39:53;99368.16;;;5.55;82.60
49585;BME280;35491;49.142;9.210;2022-11-20T03:40:59;99368.75;;;5.58;82.60
49585;BME280;35491;49.142;9.210;2022-11-20T03:42:13;99363.31;;;5.60;82.94
49585;BME280;35491;49.142;9.210;2022-11-20T03:43:30;99370.53;;;5.58;82.67
49585;BME280;35491;49.142;9.210;2022-11-20T03:44:34;99371.78;;;5.54;83.10
49585;BME280;35491;49.142;9.210;2022-11-20T03:45:41;99374.81;;;5.49;83.81
49585;BME280;35491;49.142;9.210;2022-11-20T03:46:45;99370.63;;;5.46;83.81
49585;BME280;35491;49.142;9.210;2022-11-20T03:51:20;99364.13;;;5.39;85.12
49585;BME280;35491;49.142;9.210;2022-11-20T03:52:24;99362.66;;;5.46;84.85
49585;BME280;35491;49.142;9.210;2022-11-20T03:53:30;99362.66;;;5.46;84.95
49585;BME280;35491;49.142;9.210;2022-11-20T03:54:34;99373.28;;;5.46;84.86
49585;BME280;35491;49.142;9.210;2022-11-20T03:55:36;99372.75;;;5.53;84.88
49585;BME280;35491;49.142;9.210;2022-11-20T03:56:44;99364.16;;;5.60;84.52
49585;BME280;35491;49.142;9.210;2022-11-20T04:06:10;99358.31;;;5.67;85.63
49585;BME280;35491;49.142;9.210;2022-11-20T04:08:38;99364.59;;;5.66;85.93
49585;BME280;35491;49.142;9.210;2022-11-20T04:09:42;99355.84;;;5.75;86.05
49585;BME280;35491;49.142;9.210;2022-11-20T04:10:51;99360.91;;;5.78;86.05
49585;BME280;35491;49.142;9.210;2022-11-20T04:11:55;99361.50;;;5.82;85.88
49585;BME280;35491;49.142;9.210;2022-11-20T04:12:57;99361.25;;;5.85;85.81
49585;BME280;35491;49.142;9.210;2022-11-20T04:14:02;99357.19;;;5.90;85.72
49585;BME280;35491;49.142;9.210;2022-11-20T04:15:07;99358.47;;;5.96;85.74
49585;BME280;35491;49.142;9.210;2022-11-20T04:16:12;99358.13;;;6.01;85.38
49585;BME280;35491;49.142;9.210;2022-11-20T04:18:25;99358.47;;;5.96;85.93
49585;BME280;35491;49.142;9.210;2022-11-20T04:19:30;99355.25;;;5.92;86.26
49585;BME280;35491;49.142;9.210;2022-11-20T04:20:32;99358.59;;;5.85;86.36
49585;BME280;35491;49.142;9.210;2022-11-20T04:21:44;99354.53;;;5.90;86.69
49585;BME280;35491;49.142;9.210;2022-11-20T04:22:46;99352.69;;;6.02;85.74
49585;BME280;35491;49.142;9.210;2022-11-20T04:23:57;99355.59;;;5.99;86.13
49585;BME280;35491;49.142;9.210;2022-11-20T04:24:59;99352.56;;;6.04;86.04
49585;BME280;35491;49.142;9.210;2022-11-20T04:26:08;99351.03;;;6.11;85.78
49585;BME280;35491;49.142;9.210;2022-11-20T04:27:10;99352.31;;;6.17;85.81
49585;BME280;35491;49.142;9.210;2022-11-20T04:28:14;99351.34;;;6.18;85.51
49585;BME280;35491;49.142;9.210;2022-11-20T04:29:16;99350.25;;;6.20;85.35
49585;BME280;35491;49.142;9.210;2022-11-20T04:30:22;99349.16;;;6.23;85.54
49585;BME280;35491;49.142;9.210;2022-11-20T04:31:26;99342.28;;;6.20;85.78
49585;BME280;35491;49.142;9.210;2022-11-20T04:32:31;99347.19;;;6.25;85.36
49585;BME280;35491;49.142;9.210;2022-11-20T04:33:33;99351.84;;;6.33;85.45
49585;BME280;35491;49.142;9.210;2022-11-20T04:34:37;99352.22;;;6.28;85.74
49585;BME280;35491;49.142;9.210;2022-11-20T04:35:39;99345.25;;;6.27;85.55
49585;BME280;35491;49.142;9.210;2022-11-20T04:36:45;99346.53;;;6.33;85.65
49585;BME280;35491;49.142;9.210;2022-11-20T04:37:47;99343.31;;;6.29;85.91
49585;BME280;35491;49.142;9.210;2022-11-20T04:38:52;99351.00;;;6.32;85.88
49585;BME280;35491;49.142;9.210;2022-11-20T04:39:55;99347.81;;;6.38;85.60
49585;BME280;35491;49.142;9.210;2022-11-20T04:41:03;99350.88;;;6.44;85.79
49585;BME280;35491;49.142;9.210;2022-11-20T04:42:08;99352.50;;;6.25;86.17
49585;BME280;35491;49.142;9.210;2022-11-20T04:43:25;99357.53;;;6.28;86.54
49585;BME280;35491;49.142;9.210;2022-11-20T04:44:29;99351.41;;;6.28;86.37
49585;BME280;35491;49.142;9.210;2022-11-20T04:45:31;99340.81;;;6.37;86.07
49585;BME280;35491;49.142;9.210;2022-11-20T04:46:37;99349.16;;;6.23;86.66
49585;BME280;35491;49.142;9.210;2022-11-20T04:47:40;99350.59;;;6.37;86.42
49585;BME280;35491;49.142;9.210;2022-11-20T04:48:45;99340.56;;;6.50;85.64
49585;BME280;35491;49.142;9.210;2022-11-20T04:49:47;99349.19;;;6.43;86.17
49585;BME280;35491;49.142;9.210;2022-11-20T04:50:51;99342.22;;;6.42;86.19
49585;BME280;35491;49.142;9.210;2022-11-20T04:52:02;99342.22;;;6.42;85.96
49585;BME280;35491;49.142;9.210;2022-11-20T04:53:06;99345.31;;;6.47;85.74
49585;BME280;35491;49.142;9.210;2022-11-20T04:54:08;99341.53;;;6.39;86.06
49585;BME280;35491;49.142;9.210;2022-11-20T04:55:14;99345.72;;;6.42;86.30
49585;BME280;35491;49.142;9.210;2022-11-20T04:56:17;99348.91;;;6.36;86.37
49585;BME280;35491;49.142;9.210;2022-11-20T04:57:21;99342.22;;;6.42;86.50
49585;BME280;35491;49.142;9.210;2022-11-20T04:58:24;99340.41;;;6.52;85.95
49585;BME280;35491;49.142;9.210;2022-11-20T04:59:31;99342.66;;;6.56;85.57
49585;BME280;35491;49.142;9.210;2022-11-20T05:00:35;99333.31;;;6.52;85.50
49585;BME280;35491;49.142;9.210;2022-11-20T05:01:42;99335.00;;;6.63;85.15
49585;BME280;35491;49.142;9.210;2022-11-20T05:02:46;99333.91;;;6.66;85.14
49585;BME280;35491;49.142;9.210;2022-11-20T05:04:24;99331.88;;;6.48;84.77
49585;BME280;35491;49.142;9.210;2022-11-20T05:05:33;99336.63;;;6.45;85.06
49585;BME280;35491;49.142;9.210;2022-11-20T05:06:34;99334.94;;;6.44;85.19
49585;BME280;35491;49.142;9.210;2022-11-20T05:07:41;99324.88;;;6.47;85.01
49585;BME280;35491;49.142;9.210;2022-11-20T05:08:44;99334.13;;;6.53;84.77
49585;BME280;35491;49.142;9.210;2022-11-20T05:09:51;99340.56;;;6.50;84.93
49585;BME280;35491;49.142;9.210;2022-11-20T05:11:57;99336.25;;;6.59;84.48
49585;BME280;35491;49.142;9.210;2022-11-20T05:13:58;99332.28;;;6.44;84.79
49585;BME280;35491;49.142;9.210;2022-11-20T05:16:00;99337.75;;;6.52;84.81
49585;BME280;35491;49.142;9.210;2022-11-20T05:20:54;99340.88;;;6.57;84.26
49585;BME280;35491;49.142;9.210;2022-11-20T05:45:22;99353.84;;;5.67;83.72
49585;BME280;35491;49.142;9.210;2022-11-20T05:46:26;99350.38;;;5.67;83.96
49585;BME280;35491;49.142;9.210;2022-11-20T05:47:42;99355.44;;;5.70;84.31
49585;BME280;35491;49.142;9.210;2022-11-20T05:48:47;99347.06;;;5.74;83.92
49585;BME280;35491;49.142;9.210;2022-11-20T05:49:49;99352.81;;;5.80;83.66
49585;BME280;35491;49.142;9.210;2022-11-20T05:50:53;99342.78;;;5.83;83.61
49585;BME280;35491;49.142;9.210;2022-11-20T05:51:55;99338.91;;;5.87;83.64
49585;BME280;35491;49.142;9.210;2022-11-20T05:53:00;99340.19;;;5.93;83.92
49585;BME280;35491;49.142;9.210;2022-11-20T05:54:01;99336.44;;;5.96;83.62
49585;BME280;35491;49.142;9.210;2022-11-20T05:55:18;99335.81;;;6.03;83.23
49585;BME280;35491;49.142;9.210;2022-11-20T05:56:28;99337.03;;;5.99;83.63
49585;BME280;35491;49.142;9.210;2022-11-20T05:57:32;99336.50;;;6.05;83.61
49585;BME280;35491;49.142;9.210;2022-11-20T05:58:50;99346.28;;;6.05;83.69
49585;BME280;35491;49.142;9.210;2022-11-20T05:59:54;99341.69;;;6.07;83.74
49585;BME280;35491;49.142;9.210;2022-11-20T06:01:17;99348.53;;;6.09;83.50
49585;BME280;35491;49.142;9.210;2022-11-20T06:02:22;99338.34;;;6.15;83.72
49585;BME280;35491;49.142;9.210;2022-11-20T06:03:45;99346.03;;;6.18;83.74
49585;BME280;35491;49.142;9.210;2022-11-20T06:04:51;99344.09;;;6.20;83.59
49585;BME280;35491;49.142;9.210;2022-11-20T06:06:13;99343.97;;;6.21;83.65
49585;BME280;35491;49.142;9.210;2022-11-20T06:07:19;99347.19;;;6.25;83.46
49585;BME280;35491;49.142;9.210;2022-11-20T06:08:22;99354.19;;;6.26;83.54
49585;BME280;35491;49.142;9.210;2022-11-20T06:09:26;99348.16;;;6.24;83.65
49585;BME280;35491;49.142;9.210;2022-11-20T06:10:37;99349.16;;;6.23;83.82
49585;BME280;35491;49.142;9.210;2022-11-20T06:11:42;99347.19;;;6.25;83.88
49585;BME280;35491;49.142;9.210;2022-11-20T06:12:52;99345.66;;;6.22;84.10
49585;BME280;35491;49.142;9.210;2022-11-20T06:13:56;99353.19;;;6.17;83.87
49585;BME280;35491;49.142;9.210;2022-11-20T06:14:58;99347.97;;;6.06;84.34
49585;BME280;35491;49.142;9.210;2022-11-20T06:16:07;99346.88;;;5.87;84.66
49585;BME280;35491;49.142;9.210;2022-11-20T06:17:11;99349.06;;;5.82;85.18
49585;BME280;35491;49.142;9.210;2022-11-20T06:18:15;99350.75;;;5.83;85.51
49585;BME280;35491;49.142;9.210;2022-11-20T06:19:46;99352.00;;;5.79;85.03
49585;BME280;35491;49.142;9.210;2022-11-20T06:20:59;99337.63;;;5.82;84.86
49585;BME280;35491;49.142;9.210;2022-11-20T06:22:01;99334.97;;;5.82;84.88
49585;BME280;35491;49.142;9.210;2022-11-20T06:23:34;99354.19;;;5.74;85.18
49585;BME280;35491;49.142;9.210;2022-11-20T06:24:38;99354.63;;;5.79;85.41
49585;BME280;35491;49.142;9.210;2022-11-20T06:25:41;99349.44;;;5.77;85.28
49585;BME280;35491;49.142;9.210;2022-11-20T06:26:47;99353.66;;;5.80;85.26
49585;BME280;35491;49.142;9.210;2022-11-20T06:27:49;99348.94;;;5.84;85.31
49585;BME280;35491;49.142;9.210;2022-11-20T06:28:54;99356.63;;;5.87;85.22
49585;BME280;35491;49.142;9.210;2022-11-20T06:30:12;99358.06;;;5.91;85.09
49585;BME280;35491;49.142;9.210;2022-11-20T06:31:21;99366.00;;;5.91;85.30
49585;BME280;35491;49.142;9.210;2022-11-20T06:32:32;99355.16;;;5.94;85.59
49585;BME280;35491;49.142;9.210;2022-11-20T06:33:33;99358.81;;;6.03;85.16
49585;BME280;35491;49.142;9.210;2022-11-20T06:34:38;99360.97;;;6.09;84.87
49585;BME280;35491;49.142;9.210;2022-11-20T06:35:45;99360.56;;;6.14;84.88
49585;BME280;35491;49.142;9.210;2022-11-20T06:36:50;99359.31;;;6.18;84.91
49585;BME280;35491;49.142;9.210;2022-11-20T06:37:53;99354.56;;;6.21;84.61